Terminal Aerodrome Forecast
Issued by NWS

Home | Current Version | Previous Version | Graphics & Text | Print | Product List | Glossary On
Versions: 1 2 3 4 5 6 7 8 9 10 11 12 13 14
358
FTUS43 KBIS 080408 AAA
TAFMOT
TAF AMD
KMOT 080408Z 0804/0824 29025G32KT 6SM -SN SCT023 BKN080
     FM080700 29018G26KT P6SM -SN BKN025
     FM081500 29013KT P6SM OVC030
     FM082000 30011KT P6SM SCT030=

USA.gov is the U.S. government's official web portal to all federal, state and local government web resources and services.